Thuringia — D5EG7 — position and weather

sailwx.info

Track history (hours):
 
Tides and Currents Weather Stations Pressure Air Temp Water Temp Dewpoint Dewpoint Depression Visibility Wind Speed Wind Dir Waves Ship Positions

Thuringia

Last reported at 2018-Jun-24 15:01 UTC. Time now 2018-Jun-25 03:55 UTC.
Position N 23°17' E 117°36'.

Length 260 m; draft 9.1 m.

Type: Ship. MMSI: 636016073.

Date/timePositionNaut miles runAvg speedWind from/ knotsBaromVisibWave heightAir tempDewpointWater temp
2018-Jun-24 15:01N 23°17' E 117°36'012.5
2018-Jun-24 15:00N 23°18' E 117°36'510.8
2018-Jun-24 14:30N 23°22' E 117°39'510.9
2018-Jun-24 14:00N 23°26' E 117°43'611.1
2018-Jun-24 13:30N 23°30' E 117°47'511.0
2018-Jun-24 13:00N 23°35' E 117°51'510.5
2018-Jun-24 12:30N 23°38' E 117°55'510.5
2018-Jun-24 12:00N 23°41' E 117°60'510.7
2018-Jun-24 11:30N 23°44' E 118°05'510.6
2018-Jun-24 11:00N 23°47' E 118°09'611.3
2018-Jun-24 10:30N 23°51' E 118°14'611.1
2018-Jun-24 10:00N 23°54' E 118°18'510.8
2018-Jun-24 09:30N 23°58' E 118°23'510.8
2018-Jun-24 09:00N 24°01' E 118°27'610.7
2018-Jun-24 08:28N 24°05' E 118°33'510.9
2018-Jun-24 08:00N 24°08' E 118°37'510.9
2018-Jun-24 07:30N 24°12' E 118°41'611.0
2018-Jun-24 07:00N 24°16' E 118°45'611.1
2018-Jun-24 06:30N 24°19' E 118°50'510.8
2018-Jun-24 06:00N 24°23' E 118°55'510.8
2018-Jun-24 05:30N 24°26' E 118°59'610.9
2018-Jun-24 05:00N 24°29' E 119°04'710.9
2018-Jun-24 04:20N 24°34' E 119°10'410.9
2018-Jun-24 04:00N 24°36' E 119°13'1311.0
2018-Jun-24 02:52N 24°45' E 119°23'511.0
2018-Jun-24 02:26N 24°48' E 119°27'710.8
2018-Jun-24 01:47N 24°52' E 119°33'  
2018-Jun-21 18:55N 31°06' E 122°26'614.4
2018-Jun-21 18:29N 31°06' E 122°19'2313.4
2018-Jun-21 16:47N 31°16' E 121°55'414.6
2018-Jun-21 16:28N 31°17' E 121°50'714.2
2018-Jun-21 15:58N 31°20' E 121°42'1 0.0
2018-Jun-20 20:05N 31°19' E 121°43'110.6
2018-Jun-20 19:57N 31°19' E 121°44'7 9.6
2018-Jun-20 19:14N 31°16' E 121°52'210.1
2018-Jun-20 19:00N 31°16' E 121°55'510.0
2018-Jun-20 18:30N 31°15' E 122°00'5 9.5
2018-Jun-20 17:59N 31°14' E 122°06'612.8
2018-Jun-20 17:30N 31°10' E 122°12'611.2
2018-Jun-20 17:00N 31°07' E 122°17'510.3
2018-Jun-20 16:30N 31°06' E 122°23'5 8.9
2018-Jun-20 15:54N 31°07' E 122°29'1513.2
2018-Jun-20 14:47N 31°06' E 122°47'  
2018-Jun-17 11:02N 22°20' E 114°07'  
Track history (hours):
 
Tides and Currents Weather Stations Pressure Air Temp Water Temp Dewpoint Dewpoint Depression Visibility Wind Speed Wind Dir Waves Ship Positions

Thuringia

Last reported at 2018-Jun-24 15:01 UTC. Time now 2018-Jun-25 03:55 UTC.
Position N 23°17' E 117°36'.

Length 260 m; draft 9.1 m.

Type: Ship. MMSI: 636016073.

Date/timePositionNaut miles runAvg speedWind from/ knotsBaromVisibWave heightAir tempDewpointWater temp
2018-Jun-24 15:01N 23°17' E 117°36'012.5
2018-Jun-24 15:00N 23°18' E 117°36'510.8
2018-Jun-24 14:30N 23°22' E 117°39'510.9
2018-Jun-24 14:00N 23°26' E 117°43'611.1
2018-Jun-24 13:30N 23°30' E 117°47'511.0
2018-Jun-24 13:00N 23°35' E 117°51'510.5
2018-Jun-24 12:30N 23°38' E 117°55'510.5
2018-Jun-24 12:00N 23°41' E 117°60'510.7
2018-Jun-24 11:30N 23°44' E 118°05'510.6
2018-Jun-24 11:00N 23°47' E 118°09'611.3
2018-Jun-24 10:30N 23°51' E 118°14'611.1
2018-Jun-24 10:00N 23°54' E 118°18'510.8
2018-Jun-24 09:30N 23°58' E 118°23'510.8
2018-Jun-24 09:00N 24°01' E 118°27'610.7
2018-Jun-24 08:28N 24°05' E 118°33'510.9
2018-Jun-24 08:00N 24°08' E 118°37'510.9
2018-Jun-24 07:30N 24°12' E 118°41'611.0
2018-Jun-24 07:00N 24°16' E 118°45'611.1
2018-Jun-24 06:30N 24°19' E 118°50'510.8
2018-Jun-24 06:00N 24°23' E 118°55'510.8
2018-Jun-24 05:30N 24°26' E 118°59'610.9
2018-Jun-24 05:00N 24°29' E 119°04'710.9
2018-Jun-24 04:20N 24°34' E 119°10'410.9
2018-Jun-24 04:00N 24°36' E 119°13'1311.0
2018-Jun-24 02:52N 24°45' E 119°23'511.0
2018-Jun-24 02:26N 24°48' E 119°27'710.8
2018-Jun-24 01:47N 24°52' E 119°33'  
2018-Jun-21 18:55N 31°06' E 122°26'614.4
2018-Jun-21 18:29N 31°06' E 122°19'2313.4
2018-Jun-21 16:47N 31°16' E 121°55'414.6
2018-Jun-21 16:28N 31°17' E 121°50'714.2
2018-Jun-21 15:58N 31°20' E 121°42'1 0.0
2018-Jun-20 20:05N 31°19' E 121°43'110.6
2018-Jun-20 19:57N 31°19' E 121°44'7 9.6
2018-Jun-20 19:14N 31°16' E 121°52'210.1
2018-Jun-20 19:00N 31°16' E 121°55'510.0
2018-Jun-20 18:30N 31°15' E 122°00'5 9.5
2018-Jun-20 17:59N 31°14' E 122°06'612.8
2018-Jun-20 17:30N 31°10' E 122°12'611.2
2018-Jun-20 17:00N 31°07' E 122°17'510.3
2018-Jun-20 16:30N 31°06' E 122°23'5 8.9
2018-Jun-20 15:54N 31°07' E 122°29'1513.2
2018-Jun-20 14:47N 31°06' E 122°47'  
2018-Jun-17 11:02N 22°20' E 114°07'  

Dump ship's entire track history